sensor_id;sensor_type;location;lat;lon;timestamp;pressure;altitude;pressure_sealevel;temperature;humidity
56912;BME280;42800;53.928;27.662;2023-04-01T00:02:19;97700.53;;;4.70;100.00
56912;BME280;42800;53.928;27.662;2023-04-01T00:04:45;97692.47;;;4.74;100.00
56912;BME280;42800;53.928;27.662;2023-04-01T00:07:10;97695.06;;;4.67;100.00
56912;BME280;42800;53.928;27.662;2023-04-01T00:09:36;97660.47;;;4.41;100.00
56912;BME280;42800;53.928;27.662;2023-04-01T00:12:03;97635.34;;;4.67;100.00
56912;BME280;42800;53.928;27.662;2023-04-01T00:14:30;97635.28;;;4.63;100.00
56912;BME280;42800;53.928;27.662;2023-04-01T00:16:56;97636.66;;;4.77;100.00
56912;BME280;42800;53.928;27.662;2023-04-01T00:19:22;97644.97;;;4.87;100.00
56912;BME280;42800;53.928;27.662;2023-04-01T00:21:48;97672.72;;;4.54;100.00
56912;BME280;42800;53.928;27.662;2023-04-01T00:24:14;97670.03;;;4.77;100.00
56912;BME280;42800;53.928;27.662;2023-04-01T00:26:40;97684.06;;;4.83;100.00
56912;BME280;42800;53.928;27.662;2023-04-01T00:29:07;97691.38;;;4.79;100.00
56912;BME280;42800;53.928;27.662;2023-04-01T00:31:34;97705.59;;;4.72;100.00
56912;BME280;42800;53.928;27.662;2023-04-01T00:34:00;97698.66;;;4.75;100.00
56912;BME280;42800;53.928;27.662;2023-04-01T00:36:25;97699.50;;;4.79;100.00
56912;BME280;42800;53.928;27.662;2023-04-01T00:38:51;97698.22;;;4.72;100.00
56912;BME280;42800;53.928;27.662;2023-04-01T00:41:19;97702.59;;;4.77;100.00
56912;BME280;42800;53.928;27.662;2023-04-01T00:43:48;97691.75;;;4.77;100.00
56912;BME280;42800;53.928;27.662;2023-04-01T00:46:14;97691.75;;;4.77;100.00
56912;BME280;42800;53.928;27.662;2023-04-01T00:48:46;97709.03;;;4.69;100.00
56912;BME280;42800;53.928;27.662;2023-04-01T00:51:16;97710.03;;;4.80;100.00
56912;BME280;42800;53.928;27.662;2023-04-01T00:53:46;97718.50;;;4.79;100.00
56912;BME280;42800;53.928;27.662;2023-04-01T00:56:16;97727.09;;;4.81;100.00
56912;BME280;42800;53.928;27.662;2023-04-01T00:58:46;97724.78;;;4.83;100.00
56912;BME280;42800;53.928;27.662;2023-04-01T01:01:14;97713.97;;;4.86;100.00
56912;BME280;42800;53.928;27.662;2023-04-01T01:03:41;97714.78;;;4.87;100.00
56912;BME280;42800;53.928;27.662;2023-04-01T01:06:18;97724.13;;;4.89;100.00
56912;BME280;42800;53.928;27.662;2023-04-01T01:09:10;97717.13;;;4.88;100.00
56912;BME280;42800;53.928;27.662;2023-04-01T01:11:43;97717.56;;;4.90;100.00
56912;BME280;42800;53.928;27.662;2023-04-01T01:14:21;97714.84;;;4.90;100.00
56912;BME280;42800;53.928;27.662;2023-04-01T01:16:53;97724.50;;;4.88;100.00
56912;BME280;42800;53.928;27.662;2023-04-01T01:22:48;97715.91;;;4.86;100.00
56912;BME280;42800;53.928;27.662;2023-04-01T01:25:28;97718.75;;;4.93;100.00
56912;BME280;42800;53.928;27.662;2023-04-01T01:28:08;97720.69;;;4.92;100.00
56912;BME280;42800;53.928;27.662;2023-04-01T01:30:46;97716.41;;;4.91;100.00
56912;BME280;42800;53.928;27.662;2023-04-01T01:33:32;97706.91;;;4.59;100.00
56912;BME280;42800;53.928;27.662;2023-04-01T01:36:04;97700.41;;;4.86;100.00
56912;BME280;42800;53.928;27.662;2023-04-01T01:38:34;97707.66;;;4.79;100.00
56912;BME280;42800;53.928;27.662;2023-04-01T01:41:01;97710.41;;;4.59;100.00
56912;BME280;42800;53.928;27.662;2023-04-01T01:43:30;97702.22;;;4.56;100.00
56912;BME280;42800;53.928;27.662;2023-04-01T01:46:00;97688.47;;;4.68;100.00
56912;BME280;42800;53.928;27.662;2023-04-01T01:48:29;97696.44;;;4.80;100.00
56912;BME280;42800;53.928;27.662;2023-04-01T01:50:56;97706.59;;;4.83;100.00
56912;BME280;42800;53.928;27.662;2023-04-01T01:53:23;97722.78;;;4.80;100.00
56912;BME280;42800;53.928;27.662;2023-04-01T01:55:49;97715.31;;;4.96;100.00
56912;BME280;42800;53.928;27.662;2023-04-01T01:58:18;97711.47;;;4.97;100.00
56912;BME280;42800;53.928;27.662;2023-04-01T02:00:48;97711.88;;;4.99;100.00
56912;BME280;42800;53.928;27.662;2023-04-01T02:03:17;97708.31;;;4.72;100.00
56912;BME280;42800;53.928;27.662;2023-04-01T02:05:46;97692.03;;;4.95;100.00
56912;BME280;42800;53.928;27.662;2023-04-01T02:08:14;97684.81;;;5.06;100.00
56912;BME280;42800;53.928;27.662;2023-04-01T02:10:46;97679.13;;;5.15;100.00
56912;BME280;42800;53.928;27.662;2023-04-01T02:13:17;97677.53;;;5.10;100.00
56912;BME280;42800;53.928;27.662;2023-04-01T02:15:47;97685.31;;;5.12;100.00
56912;BME280;42800;53.928;27.662;2023-04-01T02:18:16;97688.41;;;5.10;100.00
56912;BME280;42800;53.928;27.662;2023-04-01T02:20:44;97688.63;;;5.02;100.00
56912;BME280;42800;53.928;27.662;2023-04-01T02:23:10;97680.75;;;5.19;100.00
56912;BME280;42800;53.928;27.662;2023-04-01T02:25:37;97677.00;;;5.01;100.00
56912;BME280;42800;53.928;27.662;2023-04-01T02:28:07;97687.91;;;5.05;100.00
56912;BME280;42800;53.928;27.662;2023-04-01T02:30:36;97699.69;;;4.89;100.00
56912;BME280;42800;53.928;27.662;2023-04-01T02:33:03;97693.66;;;4.54;100.00
56912;BME280;42800;53.928;27.662;2023-04-01T02:35:33;97643.34;;;4.60;100.00
56912;BME280;42800;53.928;27.662;2023-04-01T02:37:59;97628.72;;;4.22;100.00
56912;BME280;42800;53.928;27.662;2023-04-01T02:40:26;97576.66;;;4.85;100.00
56912;BME280;42800;53.928;27.662;2023-04-01T02:42:52;97591.88;;;4.90;100.00
56912;BME280;42800;53.928;27.662;2023-04-01T02:45:18;97612.44;;;4.91;100.00
56912;BME280;42800;53.928;27.662;2023-04-01T02:47:44;97619.53;;;4.99;100.00
56912;BME280;42800;53.928;27.662;2023-04-01T02:50:10;97625.22;;;4.90;100.00
56912;BME280;42800;53.928;27.662;2023-04-01T02:52:36;97626.22;;;5.05;100.00
56912;BME280;42800;53.928;27.662;2023-04-01T02:55:03;97650.19;;;5.00;100.00
56912;BME280;42800;53.928;27.662;2023-04-01T02:57:29;97652.97;;;5.03;100.00
56912;BME280;42800;53.928;27.662;2023-04-01T02:59:55;97655.69;;;5.03;100.00
56912;BME280;42800;53.928;27.662;2023-04-01T03:02:22;97657.75;;;5.10;100.00
56912;BME280;42800;53.928;27.662;2023-04-01T03:04:48;97674.56;;;4.96;100.00
56912;BME280;42800;53.928;27.662;2023-04-01T03:07:14;97683.25;;;5.05;100.00
56912;BME280;42800;53.928;27.662;2023-04-01T03:09:40;97673.91;;;5.03;100.00
56912;BME280;42800;53.928;27.662;2023-04-01T03:12:06;97659.66;;;5.09;100.00
56912;BME280;42800;53.928;27.662;2023-04-01T03:14:32;97653.91;;;4.88;100.00
56912;BME280;42800;53.928;27.662;2023-04-01T03:16:58;97645.44;;;4.93;100.00
56912;BME280;42800;53.928;27.662;2023-04-01T03:19:24;97652.63;;;4.36;100.00
56912;BME280;42800;53.928;27.662;2023-04-01T03:21:50;97625.38;;;4.52;100.00
56912;BME280;42800;53.928;27.662;2023-04-01T03:24:16;97620.72;;;4.75;100.00
56912;BME280;42800;53.928;27.662;2023-04-01T03:26:42;97622.84;;;4.62;100.00
56912;BME280;42800;53.928;27.662;2023-04-01T03:29:08;97632.00;;;4.54;100.00
56912;BME280;42800;53.928;27.662;2023-04-01T03:31:34;97639.50;;;4.38;100.00
56912;BME280;42800;53.928;27.662;2023-04-01T03:34:00;97608.84;;;4.60;100.00
56912;BME280;42800;53.928;27.662;2023-04-01T03:36:26;97603.72;;;4.55;100.00
56912;BME280;42800;53.928;27.662;2023-04-01T03:38:52;97611.56;;;4.60;100.00
56912;BME280;42800;53.928;27.662;2023-04-01T03:41:18;97627.97;;;4.67;100.00
56912;BME280;42800;53.928;27.662;2023-04-01T03:43:44;97632.00;;;4.77;100.00
56912;BME280;42800;53.928;27.662;2023-04-01T03:46:10;97633.75;;;4.66;100.00
56912;BME280;42800;53.928;27.662;2023-04-01T03:48:36;97641.00;;;4.58;100.00
56912;BME280;42800;53.928;27.662;2023-04-01T03:51:06;97641.88;;;4.66;100.00
56912;BME280;42800;53.928;27.662;2023-04-01T03:53:33;97658.16;;;4.43;100.00
56912;BME280;42800;53.928;27.662;2023-04-01T03:56:03;97649.75;;;4.48;100.00
56912;BME280;42800;53.928;27.662;2023-04-01T03:58:30;97643.94;;;4.27;100.00
56912;BME280;42800;53.928;27.662;2023-04-01T04:00:55;97631.00;;;3.97;100.00
56912;BME280;42800;53.928;27.662;2023-04-01T04:03:21;97594.91;;;4.39;100.00
56912;BME280;42800;53.928;27.662;2023-04-01T04:05:48;97598.97;;;4.48;100.00
56912;BME280;42800;53.928;27.662;2023-04-01T04:08:15;97612.66;;;4.56;100.00
56912;BME280;42800;53.928;27.662;2023-04-01T04:10:42;97619.84;;;4.44;100.00
56912;BME280;42800;53.928;27.662;2023-04-01T04:13:09;97630.69;;;4.67;100.00
56912;BME280;42800;53.928;27.662;2023-04-01T04:15:35;97650.97;;;4.74;100.00
56912;BME280;42800;53.928;27.662;2023-04-01T04:18:01;97665.13;;;4.63;100.00
56912;BME280;42800;53.928;27.662;2023-04-01T04:20:26;97672.34;;;4.56;100.00
56912;BME280;42800;53.928;27.662;2023-04-01T04:22:52;97675.06;;;4.56;100.00
56912;BME280;42800;53.928;27.662;2023-04-01T04:25:18;97656.38;;;4.74;100.00
56912;BME280;42800;53.928;27.662;2023-04-01T04:27:45;97674.47;;;4.66;100.00
56912;BME280;42800;53.928;27.662;2023-04-01T04:30:11;97673.41;;;4.70;100.00
56912;BME280;42800;53.928;27.662;2023-04-01T04:32:37;97669.66;;;4.79;100.00
56912;BME280;42800;53.928;27.662;2023-04-01T04:35:06;97677.06;;;4.82;100.00
56912;BME280;42800;53.928;27.662;2023-04-01T04:37:32;97683.28;;;4.59;100.00
56912;BME280;42800;53.928;27.662;2023-04-01T04:39:58;97670.03;;;4.77;100.00
56912;BME280;42800;53.928;27.662;2023-04-01T04:42:24;97670.25;;;4.91;100.00
56912;BME280;42800;53.928;27.662;2023-04-01T04:44:50;97664.31;;;4.63;100.00
56912;BME280;42800;53.928;27.662;2023-04-01T04:47:16;97667.03;;;4.86;100.00
56912;BME280;42800;53.928;27.662;2023-04-01T04:49:45;97703.06;;;4.60;100.00
56912;BME280;42800;53.928;27.662;2023-04-01T04:52:11;97683.22;;;4.56;100.00
56912;BME280;42800;53.928;27.662;2023-04-01T04:54:37;97660.03;;;4.85;100.00
56912;BME280;42800;53.928;27.662;2023-04-01T04:57:03;97659.59;;;5.06;100.00
56912;BME280;42800;53.928;27.662;2023-04-01T04:59:30;97676.66;;;5.06;100.00
56912;BME280;42800;53.928;27.662;2023-04-01T05:01:56;97696.34;;;5.00;100.00
56912;BME280;42800;53.928;27.662;2023-04-01T05:04:22;97692.19;;;5.06;100.00
56912;BME280;42800;53.928;27.662;2023-04-01T05:06:48;97692.56;;;5.04;100.00
56912;BME280;42800;53.928;27.662;2023-04-01T05:09:15;97705.34;;;5.27;100.00
56912;BME280;42800;53.928;27.662;2023-04-01T05:11:41;97705.16;;;5.16;100.00
56912;BME280;42800;53.928;27.662;2023-04-01T05:14:12;97702.88;;;5.45;100.00
56912;BME280;42800;53.928;27.662;2023-04-01T05:16:38;97718.06;;;5.23;100.00
56912;BME280;42800;53.928;27.662;2023-04-01T05:19:06;97708.41;;;5.52;100.00
56912;BME280;42800;53.928;27.662;2023-04-01T05:21:35;97729.00;;;5.53;100.00
56912;BME280;42800;53.928;27.662;2023-04-01T05:24:01;97715.53;;;5.60;100.00
56912;BME280;42800;53.928;27.662;2023-04-01T05:26:27;97722.88;;;5.59;100.00
56912;BME280;42800;53.928;27.662;2023-04-01T05:28:53;97728.88;;;5.99;100.00
56912;BME280;42800;53.928;27.662;2023-04-01T05:31:19;97748.03;;;5.79;100.00
56912;BME280;42800;53.928;27.662;2023-04-01T05:33:45;97764.44;;;5.33;100.00
56912;BME280;42800;53.928;27.662;2023-04-01T05:36:16;97749.75;;;5.64;100.00
56912;BME280;42800;53.928;27.662;2023-04-01T05:38:42;97754.94;;;5.73;100.00
56912;BME280;42800;53.928;27.662;2023-04-01T05:41:10;97736.50;;;5.36;100.00
56912;BME280;42800;53.928;27.662;2023-04-01T05:43:37;97727.38;;;5.75;100.00
56912;BME280;42800;53.928;27.662;2023-04-01T05:46:03;97732.41;;;6.33;100.00
56912;BME280;42800;53.928;27.662;2023-04-01T05:48:29;97762.03;;;6.38;100.00
56912;BME280;42800;53.928;27.662;2023-04-01T05:50:55;97779.97;;;6.43;100.00
56912;BME280;42800;53.928;27.662;2023-04-01T05:53:22;97797.53;;;6.49;100.00
56912;BME280;42800;53.928;27.662;2023-04-01T05:55:47;97809.81;;;6.35;100.00
56912;BME280;42800;53.928;27.662;2023-04-01T05:58:13;97811.09;;;6.45;100.00
56912;BME280;42800;53.928;27.662;2023-04-01T06:00:39;97812.22;;;6.10;100.00
56912;BME280;42800;53.928;27.662;2023-04-01T06:03:05;97814.34;;;6.54;100.00
56912;BME280;42800;53.928;27.662;2023-04-01T06:05:39;97824.41;;;6.84;100.00
56912;BME280;42800;53.928;27.662;2023-04-01T06:08:10;97822.09;;;5.96;100.00
56912;BME280;42800;53.928;27.662;2023-04-01T06:10:44;97807.19;;;6.12;100.00
56912;BME280;42800;53.928;27.662;2023-04-01T06:13:24;97793.13;;;6.37;100.00
56912;BME280;42800;53.928;27.662;2023-04-01T06:16:00;97808.75;;;6.77;100.00
56912;BME280;42800;53.928;27.662;2023-04-01T06:18:47;97825.56;;;6.53;100.00
56912;BME280;42800;53.928;27.662;2023-04-01T06:21:37;97808.31;;;6.72;100.00
56912;BME280;42800;53.928;27.662;2023-04-01T06:24:28;97815.59;;;6.98;100.00
56912;BME280;42800;53.928;27.662;2023-04-01T06:27:04;97821.25;;;6.82;100.00
56912;BME280;42800;53.928;27.662;2023-04-01T06:29:47;97803.88;;;6.94;100.00
56912;BME280;42800;53.928;27.662;2023-04-01T06:32:26;97814.88;;;7.45;100.00
56912;BME280;42800;53.928;27.662;2023-04-01T06:35:17;97825.78;;;7.04;100.00
56912;BME280;42800;53.928;27.662;2023-04-01T06:38:17;97828.25;;;7.17;100.00
56912;BME280;42800;53.928;27.662;2023-04-01T06:43:41;97834.78;;;7.08;100.00
56912;BME280;42800;53.928;27.662;2023-04-01T06:46:18;97839.81;;;7.47;100.00
56912;BME280;42800;53.928;27.662;2023-04-01T06:49:04;97840.41;;;6.89;100.00
56912;BME280;42800;53.928;27.662;2023-04-01T06:51:40;97836.16;;;7.77;100.00
56912;BME280;42800;53.928;27.662;2023-04-01T06:54:12;97849.41;;;7.75;100.00
56912;BME280;42800;53.928;27.662;2023-04-01T06:56:44;97847.19;;;7.95;100.00
56912;BME280;42800;53.928;27.662;2023-04-01T06:59:15;97849.72;;;8.25;100.00
56912;BME280;42800;53.928;27.662;2023-04-01T07:01:45;97839.72;;;8.43;100.00
56912;BME280;42800;53.928;27.662;2023-04-01T07:04:15;97829.84;;;8.28;100.00
56912;BME280;42800;53.928;27.662;2023-04-01T07:06:46;97827.16;;;8.35;100.00
56912;BME280;42800;53.928;27.662;2023-04-01T07:09:18;97812.41;;;8.40;100.00
56912;BME280;42800;53.928;27.662;2023-04-01T07:11:45;97816.66;;;8.37;100.00
56912;BME280;42800;53.928;27.662;2023-04-01T07:14:17;97828.63;;;8.18;100.00
56912;BME280;42800;53.928;27.662;2023-04-01T07:16:48;97830.91;;;8.09;100.00
56912;BME280;42800;53.928;27.662;2023-04-01T07:19:20;97844.94;;;8.04;100.00
56912;BME280;42800;53.928;27.662;2023-04-01T07:21:49;97855.94;;;8.22;100.00
56912;BME280;42800;53.928;27.662;2023-04-01T07:24:21;97856.38;;;8.28;100.00
56912;BME280;42800;53.928;27.662;2023-04-01T07:26:49;97863.31;;;8.14;100.00
56912;BME280;42800;53.928;27.662;2023-04-01T07:29:18;97869.19;;;8.16;100.00
56912;BME280;42800;53.928;27.662;2023-04-01T07:31:55;97869.06;;;8.02;100.00
56912;BME280;42800;53.928;27.662;2023-04-01T07:34:25;97873.03;;;8.08;100.00
56912;BME280;42800;53.928;27.662;2023-04-01T07:36:55;97866.03;;;8.11;100.00
56912;BME280;42800;53.928;27.662;2023-04-01T07:39:36;97867.97;;;8.10;100.00
56912;BME280;42800;53.928;27.662;2023-04-01T07:42:10;97871.84;;;8.06;100.00
56912;BME280;42800;53.928;27.662;2023-04-01T07:44:47;97872.59;;;8.02;100.00
56912;BME280;42800;53.928;27.662;2023-04-01T07:47:35;97877.97;;;7.92;100.00
56912;BME280;42800;53.928;27.662;2023-04-01T07:50:12;97876.78;;;7.89;100.00
56912;BME280;42800;53.928;27.662;2023-04-01T07:52:45;97865.06;;;7.85;100.00
56912;BME280;42800;53.928;27.662;2023-04-01T07:55:17;97863.97;;;7.93;100.00
56912;BME280;42800;53.928;27.662;2023-04-01T07:57:50;97866.50;;;7.72;100.00
56912;BME280;42800;53.928;27.662;2023-04-01T08:00:22;97868.72;;;7.15;100.00
56912;BME280;42800;53.928;27.662;2023-04-01T08:03:12;97826.19;;;7.47;100.00
56912;BME280;42800;53.928;27.662;2023-04-01T08:05:46;97826.75;;;7.71;100.00
56912;BME280;42800;53.928;27.662;2023-04-01T08:08:19;97837.28;;;7.72;100.00
56912;BME280;42800;53.928;27.662;2023-04-01T08:10:50;97829.03;;;7.62;100.00
56912;BME280;42800;53.928;27.662;2023-04-01T08:13:26;97810.94;;;7.91;100.00
56912;BME280;42800;53.928;27.662;2023-04-01T08:16:06;97820.19;;;7.79;100.00
56912;BME280;42800;53.928;27.662;2023-04-01T08:18:38;97830.28;;;7.71;100.00
56912;BME280;42800;53.928;27.662;2023-04-01T08:21:11;97832.72;;;7.87;100.00
56912;BME280;42800;53.928;27.662;2023-04-01T08:23:41;97827.00;;;7.51;100.00
56912;BME280;42800;53.928;27.662;2023-04-01T08:26:13;97819.66;;;7.63;100.00
56912;BME280;42800;53.928;27.662;2023-04-01T08:28:45;97821.56;;;7.55;100.00
56912;BME280;42800;53.928;27.662;2023-04-01T08:31:17;97835.19;;;7.55;100.00
56912;BME280;42800;53.928;27.662;2023-04-01T08:33:46;97824.34;;;7.62;100.00
56912;BME280;42800;53.928;27.662;2023-04-01T08:36:34;97823.22;;;7.67;100.00
56912;BME280;42800;53.928;27.662;2023-04-01T08:39:04;97828.47;;;7.42;100.00
56912;BME280;42800;53.928;27.662;2023-04-01T08:42:04;97829.97;;;7.36;100.00
56912;BME280;42800;53.928;27.662;2023-04-01T08:44:52;97804.28;;;6.96;100.00
56912;BME280;42800;53.928;27.662;2023-04-01T08:48:07;97751.84;;;7.10;100.00
56912;BME280;42800;53.928;27.662;2023-04-01T08:54:04;97709.81;;;6.66;100.00
56912;BME280;42800;53.928;27.662;2023-04-01T08:56:39;97670.84;;;6.58;100.00
56912;BME280;42800;53.928;27.662;2023-04-01T08:59:39;97642.81;;;6.54;100.00
56912;BME280;42800;53.928;27.662;2023-04-01T09:02:26;97644.78;;;6.57;100.00
56912;BME280;42800;53.928;27.662;2023-04-01T09:05:26;97623.06;;;6.65;100.00
56912;BME280;42800;53.928;27.662;2023-04-01T09:08:07;97633.53;;;6.63;100.00
56912;BME280;42800;53.928;27.662;2023-04-01T09:10:48;97633.56;;;6.25;100.00
56912;BME280;42800;53.928;27.662;2023-04-01T09:13:30;97618.25;;;6.47;100.00
56912;BME280;42800;53.928;27.662;2023-04-01T09:19:15;97590.59;;;6.45;100.00
56912;BME280;42800;53.928;27.662;2023-04-01T09:25:06;97614.72;;;6.43;100.00
56912;BME280;42800;53.928;27.662;2023-04-01T09:27:44;97614.88;;;6.65;100.00
56912;BME280;42800;53.928;27.662;2023-04-01T09:30:37;97617.66;;;6.72;100.00
56912;BME280;42800;53.928;27.662;2023-04-01T09:36:15;97607.09;;;6.63;100.00
56912;BME280;42800;53.928;27.662;2023-04-01T09:38:55;97615.53;;;6.47;100.00
56912;BME280;42800;53.928;27.662;2023-04-01T09:41:28;97593.25;;;6.38;100.00
56912;BME280;42800;53.928;27.662;2023-04-01T09:44:00;97574.50;;;6.74;100.00
56912;BME280;42800;53.928;27.662;2023-04-01T09:46:36;97578.06;;;6.81;100.00
56912;BME280;42800;53.928;27.662;2023-04-01T09:49:43;97602.13;;;6.76;100.00
56912;BME280;42800;53.928;27.662;2023-04-01T09:52:24;97596.63;;;6.69;100.00
56912;BME280;42800;53.928;27.662;2023-04-01T09:55:00;97610.03;;;6.44;100.00
56912;BME280;42800;53.928;27.662;2023-04-01T09:58:12;97614.16;;;6.71;100.00
56912;BME280;42800;53.928;27.662;2023-04-01T10:01:10;97630.38;;;6.20;100.00
56912;BME280;42800;53.928;27.662;2023-04-01T10:04:01;97625.88;;;6.34;100.00
56912;BME280;42800;53.928;27.662;2023-04-01T10:10:18;97617.97;;;6.22;100.00
56912;BME280;42800;53.928;27.662;2023-04-01T10:16:26;97616.22;;;6.41;100.00
56912;BME280;42800;53.928;27.662;2023-04-01T10:19:14;97632.31;;;6.16;100.00
56912;BME280;42800;53.928;27.662;2023-04-01T10:25:05;97634.00;;;6.72;100.00
56912;BME280;42800;53.928;27.662;2023-04-01T10:27:58;97641.66;;;7.03;100.00
56912;BME280;42800;53.928;27.662;2023-04-01T10:30:56;97673.31;;;6.74;100.00
56912;BME280;42800;53.928;27.662;2023-04-01T10:33:57;97696.50;;;6.98;100.00
56912;BME280;42800;53.928;27.662;2023-04-01T10:36:54;97700.88;;;7.10;100.00
56912;BME280;42800;53.928;27.662;2023-04-01T10:39:49;97709.63;;;7.34;100.00
56912;BME280;42800;53.928;27.662;2023-04-01T10:49:04;97759.06;;;7.32;100.00
56912;BME280;42800;53.928;27.662;2023-04-01T10:54:49;97764.03;;;7.23;100.00
56912;BME280;42800;53.928;27.662;2023-04-01T10:57:40;97763.09;;;7.49;100.00
56912;BME280;42800;53.928;27.662;2023-04-01T11:00:27;97760.25;;;7.35;100.00
56912;BME280;42800;53.928;27.662;2023-04-01T11:03:43;97769.56;;;7.30;100.00
56912;BME280;42800;53.928;27.662;2023-04-01T11:06:51;97747.97;;;7.07;100.00
56912;BME280;42800;53.928;27.662;2023-04-01T11:10:06;97734.28;;;7.55;100.00
56912;BME280;42800;53.928;27.662;2023-04-01T11:16:10;97717.63;;;7.12;100.00
56912;BME280;42800;53.928;27.662;2023-04-01T11:22:01;97694.41;;;7.32;100.00
56912;BME280;42800;53.928;27.662;2023-04-01T11:27:45;97686.97;;;7.26;100.00
56912;BME280;42800;53.928;27.662;2023-04-01T11:30:22;97648.03;;;7.29;100.00
56912;BME280;42800;53.928;27.662;2023-04-01T11:32:59;97649.16;;;7.21;100.00
56912;BME280;42800;53.928;27.662;2023-04-01T11:35:47;97638.44;;;7.53;100.00
56912;BME280;42800;53.928;27.662;2023-04-01T11:38:39;97649.31;;;7.49;100.00
56912;BME280;42800;53.928;27.662;2023-04-01T11:41:19;97631.09;;;7.61;100.00
56912;BME280;42800;53.928;27.662;2023-04-01T11:44:03;97658.72;;;7.55;100.00
56912;BME280;42800;53.928;27.662;2023-04-01T11:46:41;97644.84;;;7.89;100.00
56912;BME280;42800;53.928;27.662;2023-04-01T11:49:25;97653.34;;;7.70;100.00
56912;BME280;42800;53.928;27.662;2023-04-01T11:52:14;97642.78;;;7.61;100.00
56912;BME280;42800;53.928;27.662;2023-04-01T11:57:46;97629.00;;;7.36;100.00
56912;BME280;42800;53.928;27.662;2023-04-01T12:00:30;97590.28;;;7.93;100.00
56912;BME280;42800;53.928;27.662;2023-04-01T12:03:10;97617.97;;;7.88;100.00
56912;BME280;42800;53.928;27.662;2023-04-01T12:05:43;97603.59;;;8.09;100.00
56912;BME280;42800;53.928;27.662;2023-04-01T12:08:19;97603.50;;;7.80;100.00
56912;BME280;42800;53.928;27.662;2023-04-01T12:10:55;97605.91;;;7.99;100.00
56912;BME280;42800;53.928;27.662;2023-04-01T12:13:36;97605.09;;;7.85;100.00
56912;BME280;42800;53.928;27.662;2023-04-01T12:16:19;97597.00;;;8.20;100.00
56912;BME280;42800;53.928;27.662;2023-04-01T12:18:50;97602.81;;;8.05;100.00
56912;BME280;42800;53.928;27.662;2023-04-01T12:21:25;97595.38;;;7.98;100.00
56912;BME280;42800;53.928;27.662;2023-04-01T12:24:06;97602.91;;;8.44;100.00
56912;BME280;42800;53.928;27.662;2023-04-01T12:26:49;97618.00;;;7.98;100.00
56912;BME280;42800;53.928;27.662;2023-04-01T12:29:54;97627.38;;;8.15;100.00
56912;BME280;42800;53.928;27.662;2023-04-01T12:32:31;97653.63;;;8.38;100.00
56912;BME280;42800;53.928;27.662;2023-04-01T12:35:22;97652.88;;;8.66;100.00
56912;BME280;42800;53.928;27.662;2023-04-01T12:38:02;97669.25;;;8.62;100.00
56912;BME280;42800;53.928;27.662;2023-04-01T12:44:07;97685.13;;;8.17;100.00
56912;BME280;42800;53.928;27.662;2023-04-01T12:46:47;97654.69;;;8.12;100.00
56912;BME280;42800;53.928;27.662;2023-04-01T12:49:32;97636.00;;;8.28;100.00
56912;BME280;42800;53.928;27.662;2023-04-01T12:52:05;97656.97;;;7.99;100.00
56912;BME280;42800;53.928;27.662;2023-04-01T12:54:56;97634.03;;;8.18;100.00
56912;BME280;42800;53.928;27.662;2023-04-01T12:58:01;97627.69;;;7.89;100.00
56912;BME280;42800;53.928;27.662;2023-04-01T13:06:28;97558.25;;;7.68;100.00
56912;BME280;42800;53.928;27.662;2023-04-01T13:09:01;97545.91;;;8.28;100.00
56912;BME280;42800;53.928;27.662;2023-04-01T13:11:39;97567.00;;;8.45;100.00
56912;BME280;42800;53.928;27.662;2023-04-01T13:14:28;97588.09;;;8.38;100.00
56912;BME280;42800;53.928;27.662;2023-04-01T13:17:08;97585.25;;;8.13;100.00
56912;BME280;42800;53.928;27.662;2023-04-01T13:19:44;97579.03;;;8.05;100.00
56912;BME280;42800;53.928;27.662;2023-04-01T13:22:19;97570.16;;;8.40;100.00
56912;BME280;42800;53.928;27.662;2023-04-01T13:24:52;97593.94;;;8.51;100.00
56912;BME280;42800;53.928;27.662;2023-04-01T13:27:27;97611.53;;;8.71;100.00
56912;BME280;42800;53.928;27.662;2023-04-01T13:30:09;97609.47;;;8.21;100.00
56912;BME280;42800;53.928;27.662;2023-04-01T13:32:47;97627.81;;;8.21;100.00
56912;BME280;42800;53.928;27.662;2023-04-01T13:35:26;97605.56;;;8.26;100.00
56912;BME280;42800;53.928;27.662;2023-04-01T13:38:14;97589.19;;;8.26;100.00
56912;BME280;42800;53.928;27.662;2023-04-01T13:40:52;97600.09;;;8.12;100.00
56912;BME280;42800;53.928;27.662;2023-04-01T13:43:24;97588.38;;;8.04;100.00
56912;BME280;42800;53.928;27.662;2023-04-01T13:46:22;97564.59;;;8.12;100.00
56912;BME280;42800;53.928;27.662;2023-04-01T13:49:20;97573.84;;;7.68;100.00
56912;BME280;42800;53.928;27.662;2023-04-01T13:55:05;97525.59;;;7.90;100.00
56912;BME280;42800;53.928;27.662;2023-04-01T13:57:55;97523.13;;;7.52;100.00
56912;BME280;42800;53.928;27.662;2023-04-01T14:00:29;97520.94;;;8.01;100.00
56912;BME280;42800;53.928;27.662;2023-04-01T14:03:14;97524.84;;;8.00;100.00
56912;BME280;42800;53.928;27.662;2023-04-01T14:05:56;97531.09;;;8.18;100.00
56912;BME280;42800;53.928;27.662;2023-04-01T14:08:39;97556.78;;;7.99;100.00
56912;BME280;42800;53.928;27.662;2023-04-01T14:11:14;97551.00;;;8.37;100.00
56912;BME280;42800;53.928;27.662;2023-04-01T14:13:51;97577.06;;;8.06;100.00
56912;BME280;42800;53.928;27.662;2023-04-01T14:16:40;97558.00;;;8.23;100.00
56912;BME280;42800;53.928;27.662;2023-04-01T14:19:22;97580.63;;;8.28;100.00
56912;BME280;42800;53.928;27.662;2023-04-01T14:21:59;97604.44;;;8.27;100.00
56912;BME280;42800;53.928;27.662;2023-04-01T14:24:56;97626.72;;;8.40;100.00
56912;BME280;42800;53.928;27.662;2023-04-01T14:27:40;97643.41;;;8.13;100.00
56912;BME280;42800;53.928;27.662;2023-04-01T14:30:17;97632.56;;;8.53;100.00
56912;BME280;42800;53.928;27.662;2023-04-01T14:32:51;97662.53;;;8.20;100.00
56912;BME280;42800;53.928;27.662;2023-04-01T14:35:33;97655.88;;;8.18;100.00